Time,TemperatureF,DewpointF,PressureIn,WindDirection,WindDirectionDegrees,WindSpeedMPH,WindSpeedGustMPH,Humidity,HourlyPrecipIn,Conditions,Clouds,dailyrainin,SoftwareType,DateUTC
2013-02-23 00:01:00,24.0,18.0,30.02,West,270,5.0,8.0,78,-99.99,,,-99.99,,2013-02-23 06:01:00,
2013-02-23 00:11:00,24.0,17.0,30.02,West,280,7.0,9.0,77,-99.99,,,-99.99,,2013-02-23 06:11:00,
2013-02-23 00:22:00,24.0,17.0,30.02,West,280,7.0,9.0,77,-99.99,,,-99.99,,2013-02-23 06:22:00,
2013-02-23 00:32:00,23.0,18.0,30.02,WSW,250,5.0,10.0,78,-99.99,,,-99.99,,2013-02-23 06:32:00,
2013-02-23 00:41:00,23.0,18.0,30.02,West,280,7.0,9.0,78,-99.99,,,-99.99,,2013-02-23 06:41:00,
2013-02-23 00:51:00,23.0,18.0,30.02,West,280,7.0,9.0,78,-99.99,,,-99.99,,2013-02-23 06:51:00,
2013-02-23 01:01:00,23.0,17.0,30.02,West,270,4.0,7.0,78,-99.99,,,-99.99,,2013-02-23 07:01:00,
2013-02-23 01:11:00,23.0,17.0,30.02,West,275,7.0,9.0,78,-99.99,,,-99.99,,2013-02-23 07:11:00,
2013-02-23 01:21:00,23.0,17.0,30.02,West,275,7.0,9.0,78,-99.99,,,-99.99,,2013-02-23 07:21:00,
2013-02-23 01:32:00,23.0,17.0,30.02,West,265,6.0,9.0,78,-99.99,,,-99.99,,2013-02-23 07:32:00,
2013-02-23 01:42:00,23.0,17.0,30.02,West,275,6.0,8.0,78,-99.99,,,-99.99,,2013-02-23 07:42:00,
2013-02-23 01:51:00,23.0,17.0,30.02,West,275,6.0,8.0,78,-99.99,,,-99.99,,2013-02-23 07:51:00,
2013-02-23 02:01:00,22.0,17.0,30.01,West,280,6.0,7.0,78,-99.99,,,-99.99,,2013-02-23 08:01:00,
2013-02-23 02:11:00,22.0,17.0,30.01,West,275,4.0,7.0,79,-99.99,,,-99.99,,2013-02-23 08:11:00,
2013-02-23 02:21:00,22.0,17.0,30.01,West,275,4.0,7.0,79,-99.99,,,-99.99,,2013-02-23 08:21:00,
2013-02-23 02:31:00,22.0,16.0,30.01,West,270,2.0,7.0,78,-99.99,,,-99.99,,2013-02-23 08:31:00,
2013-02-23 02:42:00,22.0,16.0,30.00,West,265,4.0,6.0,78,-99.99,,,-99.99,,2013-02-23 08:42:00,
2013-02-23 02:52:00,22.0,16.0,30.00,West,265,4.0,6.0,78,-99.99,,,-99.99,,2013-02-23 08:52:00,
2013-02-23 03:01:00,22.0,16.0,30.00,WNW,285,2.0,6.0,78,-99.99,,,-99.99,,2013-02-23 09:01:00,
2013-02-23 03:11:00,22.0,16.0,30.00,WNW,285,2.0,5.0,78,-99.99,,,-99.99,,2013-02-23 09:11:00,
2013-02-23 03:21:00,22.0,16.0,30.00,WNW,285,2.0,5.0,78,-99.99,,,-99.99,,2013-02-23 09:21:00,
2013-02-23 03:32:00,21.0,16.0,30.00,WNW,290,3.0,6.0,79,-99.99,,,-99.99,,2013-02-23 09:32:00,
2013-02-23 03:42:00,21.0,16.0,29.99,NW,315,3.0,5.0,79,-99.99,,,-99.99,,2013-02-23 09:42:00,
2013-02-23 03:51:00,21.0,16.0,29.99,NW,315,3.0,5.0,79,-99.99,,,-99.99,,2013-02-23 09:51:00,
2013-02-23 04:01:00,20.0,15.0,29.98,WNW,295,2.0,4.0,80,-99.99,,,-99.99,,2013-02-23 10:01:00,
2013-02-23 04:11:00,20.0,15.0,29.99,West,270,3.0,5.0,79,-99.99,,,-99.99,,2013-02-23 10:11:00,
2013-02-23 04:21:00,20.0,15.0,29.99,West,270,3.0,5.0,79,-99.99,,,-99.99,,2013-02-23 10:21:00,
2013-02-23 04:32:00,20.0,15.0,29.98,NW,305,2.0,3.0,80,-99.99,,,-99.99,,2013-02-23 10:32:00,
2013-02-23 04:42:00,20.0,14.0,29.98,WNW,285,2.0,4.0,79,-99.99,,,-99.99,,2013-02-23 10:42:00,
2013-02-23 04:51:00,20.0,14.0,29.98,WNW,285,2.0,4.0,79,-99.99,,,-99.99,,2013-02-23 10:51:00,
2013-02-23 05:02:00,19.0,14.0,29.97,NW,305,1.0,3.0,79,-99.99,,,-99.99,,2013-02-23 11:02:00,
2013-02-23 05:11:00,20.0,15.0,29.98,West,265,1.0,3.0,81,-99.99,,,-99.99,,2013-02-23 11:11:00,
2013-02-23 05:21:00,20.0,15.0,29.98,West,265,1.0,3.0,81,-99.99,,,-99.99,,2013-02-23 11:21:00,
2013-02-23 05:32:00,20.0,15.0,29.98,WNW,295,3.0,5.0,80,-99.99,,,-99.99,,2013-02-23 11:32:00,
2013-02-23 05:42:00,18.0,13.0,29.98,North,350,1.0,3.0,79,-99.99,,,-99.99,,2013-02-23 11:42:00,
2013-02-23 05:52:00,18.0,13.0,29.98,North,350,1.0,3.0,79,-99.99,,,-99.99,,2013-02-23 11:52:00,
2013-02-23 06:02:00,19.0,14.0,29.98,NW,310,1.0,3.0,82,-99.99,,,-99.99,,2013-02-23 12:02:00,
2013-02-23 06:11:00,18.0,14.0,29.98,North,355,0.0,1.0,81,-99.99,,,-99.99,,2013-02-23 12:11:00,
2013-02-23 06:21:00,18.0,14.0,29.98,North,355,0.0,1.0,81,-99.99,,,-99.99,,2013-02-23 12:21:00,
2013-02-23 06:32:00,19.0,14.0,29.98,SW,225,0.0,0.0,81,-99.99,,,-99.99,,2013-02-23 12:32:00,
2013-02-23 06:42:00,19.0,15.0,29.97,SW,230,0.0,1.0,81,-99.99,,,-99.99,,2013-02-23 12:42:00,
2013-02-23 06:52:00,19.0,15.0,29.97,SW,230,0.0,1.0,81,-99.99,,,-99.99,,2013-02-23 12:52:00,
2013-02-23 07:01:00,18.0,13.0,29.95,ENE,70,2.0,3.0,81,-99.99,,,-99.99,,2013-02-23 13:01:00,
2013-02-23 07:11:00,18.0,14.0,29.96,East,85,1.0,3.0,82,-99.99,,,-99.99,,2013-02-23 13:11:00,
2013-02-23 07:22:00,18.0,14.0,29.96,East,85,1.0,3.0,82,-99.99,,,-99.99,,2013-02-23 13:22:00,
2013-02-23 07:32:00,19.0,14.0,29.97,WNW,290,2.0,3.0,81,-99.99,,,-99.99,,2013-02-23 13:32:00,
2013-02-23 07:42:00,19.0,14.0,29.97,West,275,1.0,4.0,81,-99.99,,,-99.99,,2013-02-23 13:42:00,
2013-02-23 07:52:00,19.0,14.0,29.97,West,275,1.0,4.0,81,-99.99,,,-99.99,,2013-02-23 13:52:00,
2013-02-23 08:02:00,19.0,14.0,29.97,WNW,295,2.0,3.0,81,-99.99,,,-99.99,,2013-02-23 14:02:00,
2013-02-23 08:11:00,19.0,15.0,29.96,West,265,2.0,4.0,81,-99.99,,,-99.99,,2013-02-23 14:11:00,
2013-02-23 08:21:00,19.0,15.0,29.96,West,265,2.0,4.0,81,-99.99,,,-99.99,,2013-02-23 14:21:00,
2013-02-23 08:32:00,20.0,15.0,29.95,North,355,0.0,3.0,81,-99.99,,,-99.99,,2013-02-23 14:32:00,
2013-02-23 08:42:00,20.0,15.0,29.95,North,5,0.0,2.0,81,-99.99,,,-99.99,,2013-02-23 14:42:00,
2013-02-23 08:52:00,20.0,15.0,29.95,North,5,0.0,2.0,81,-99.99,,,-99.99,,2013-02-23 14:52:00,
2013-02-23 09:02:00,21.0,15.0,29.96,North,350,2.0,3.0,78,-99.99,,,-99.99,,2013-02-23 15:02:00,
2013-02-23 09:11:00,23.0,17.0,29.96,SSE,165,1.0,3.0,78,-99.99,,,-99.99,,2013-02-23 15:11:00,
2013-02-23 09:22:00,23.0,17.0,29.96,SSE,165,1.0,3.0,78,-99.99,,,-99.99,,2013-02-23 15:22:00,
2013-02-23 09:32:00,24.0,18.0,29.97,West,275,2.0,4.0,79,-99.99,,,-99.99,,2013-02-23 15:32:00,
2013-02-23 09:42:00,24.0,17.0,29.97,NE,45,0.0,4.0,76,-99.99,,,-99.99,,2013-02-23 15:42:00,
2013-02-23 09:51:00,24.0,17.0,29.97,NE,45,0.0,4.0,76,-99.99,,,-99.99,,2013-02-23 15:51:00,
2013-02-23 10:01:00,25.0,17.0,29.98,SW,230,2.0,4.0,73,-99.99,,,-99.99,,2013-02-23 16:01:00,
2013-02-23 10:11:00,25.0,16.0,29.98,WSW,245,2.0,5.0,68,-99.99,,,-99.99,,2013-02-23 16:11:00,
2013-02-23 10:21:00,25.0,16.0,29.98,WSW,245,2.0,5.0,68,-99.99,,,-99.99,,2013-02-23 16:21:00,
2013-02-23 10:31:00,26.0,16.0,29.98,West,280,4.0,5.0,64,-99.99,,,-99.99,,2013-02-23 16:31:00,
2013-02-23 10:42:00,27.0,16.0,29.98,WSW,250,2.0,6.0,64,-99.99,,,-99.99,,2013-02-23 16:42:00,
2013-02-23 10:51:00,27.0,16.0,29.98,WSW,250,2.0,6.0,64,-99.99,,,-99.99,,2013-02-23 16:51:00,
2013-02-23 11:01:00,28.0,16.0,29.98,WNW,285,3.0,5.0,61,-99.99,,,-99.99,,2013-02-23 17:01:00,
2013-02-23 11:11:00,28.0,17.0,29.98,South,190,3.0,5.0,63,-99.99,,,-99.99,,2013-02-23 17:11:00,
2013-02-23 11:21:00,28.0,17.0,29.98,South,190,3.0,5.0,63,-99.99,,,-99.99,,2013-02-23 17:21:00,
2013-02-23 11:32:00,29.0,16.0,29.98,West,275,6.0,7.0,57,-99.99,,,-99.99,,2013-02-23 17:32:00,
2013-02-23 11:42:00,30.0,19.0,29.98,WSW,245,4.0,9.0,61,-99.99,,,-99.99,,2013-02-23 17:42:00,
2013-02-23 11:52:00,30.0,19.0,29.98,WSW,245,4.0,9.0,61,-99.99,,,-99.99,,2013-02-23 17:52:00,
2013-02-23 12:01:00,30.0,17.0,29.99,WSW,250,4.0,8.0,57,-99.99,,,-99.99,,2013-02-23 18:01:00,
2013-02-23 12:12:00,31.0,18.0,29.99,West,270,4.0,9.0,58,-99.99,,,-99.99,,2013-02-23 18:12:00,
2013-02-23 12:22:00,31.0,18.0,29.99,West,270,4.0,9.0,58,-99.99,,,-99.99,,2013-02-23 18:22:00,
2013-02-23 12:32:00,32.0,20.0,29.98,WSW,255,4.0,9.0,61,-99.99,,,-99.99,,2013-02-23 18:32:00,
2013-02-23 12:42:00,31.0,18.0,29.98,West,270,2.0,9.0,57,-99.99,,,-99.99,,2013-02-23 18:42:00,
2013-02-23 12:51:00,31.0,18.0,29.98,West,270,2.0,9.0,57,-99.99,,,-99.99,,2013-02-23 18:51:00,
2013-02-23 13:01:00,34.0,21.0,29.98,West,275,5.0,9.0,59,-99.99,,,-99.99,,2013-02-23 19:01:00,
2013-02-23 13:11:00,33.0,17.0,29.98,West,280,7.0,10.0,51,-99.99,,,-99.99,,2013-02-23 19:11:00,
2013-02-23 13:21:00,33.0,17.0,29.98,West,280,7.0,10.0,51,-99.99,,,-99.99,,2013-02-23 19:21:00,
2013-02-23 13:32:00,33.0,19.0,29.98,West,275,7.0,12.0,54,-99.99,,,-99.99,,2013-02-23 19:32:00,
2013-02-23 13:41:00,34.0,19.0,29.98,West,270,3.0,11.0,54,-99.99,,,-99.99,,2013-02-23 19:41:00,
2013-02-23 13:50:00,36.0,21.0,29.96,WSW,250,6.0,11.0,54,-99.99,,,-99.99,,2013-02-23 19:50:00,
2013-02-23 13:52:00,34.0,19.0,29.98,West,270,3.0,11.0,54,-99.99,,,-99.99,,2013-02-23 19:52:00,
2013-02-23 14:01:00,34.0,18.0,29.97,West,275,6.0,10.0,51,-99.99,,,-99.99,,2013-02-23 20:01:00,
2013-02-23 14:11:00,35.0,19.0,29.97,WSW,250,4.0,13.0,52,-99.99,,,-99.99,,2013-02-23 20:11:00,
2013-02-23 14:21:00,35.0,19.0,29.97,WSW,250,4.0,13.0,52,-99.99,,,-99.99,,2013-02-23 20:21:00,
2013-02-23 14:32:00,36.0,21.0,29.96,WSW,250,6.0,11.0,54,-99.99,,,-99.99,,2013-02-23 20:32:00,
2013-02-23 14:42:00,36.0,21.0,29.96,WSW,250,6.0,11.0,54,-99.99,,,-99.99,,2013-02-23 20:42:00,
2013-02-23 15:01:00,36.0,19.0,29.96,WNW,285,4.0,11.0,49,-99.99,,,-99.99,,2013-02-23 21:01:00,
2013-02-23 15:11:00,36.0,19.0,29.95,WSW,245,6.0,12.0,50,-99.99,,,-99.99,,2013-02-23 21:11:00,
2013-02-23 15:22:00,36.0,19.0,29.95,WSW,245,6.0,12.0,50,-99.99,,,-99.99,,2013-02-23 21:22:00,
2013-02-23 15:32:00,37.0,20.0,29.95,West,265,6.0,10.0,49,-99.99,,,-99.99,,2013-02-23 21:32:00,
2013-02-23 15:42:00,38.0,20.0,29.95,West,280,8.0,15.0,49,-99.99,,,-99.99,,2013-02-23 21:42:00,
2013-02-23 15:51:00,38.0,20.0,29.95,West,280,8.0,15.0,49,-99.99,,,-99.99,,2013-02-23 21:51:00,
2013-02-23 16:01:00,37.0,19.0,29.94,WNW,285,10.0,15.0,46,-99.99,,,-99.99,,2013-02-23 22:01:00,
2013-02-23 16:11:00,38.0,19.0,29.94,West,270,6.0,17.0,46,-99.99,,,-99.99,,2013-02-23 22:11:00,
2013-02-23 16:22:00,38.0,19.0,29.94,West,270,6.0,17.0,46,-99.99,,,-99.99,,2013-02-23 22:22:00,
2013-02-23 16:32:00,37.0,18.0,29.94,West,280,10.0,15.0,45,-99.99,,,-99.99,,2013-02-23 22:32:00,
2013-02-23 16:42:00,37.0,18.0,29.93,West,260,6.0,12.0,46,-99.99,,,-99.99,,2013-02-23 22:42:00,
2013-02-23 16:51:00,37.0,18.0,29.93,West,260,6.0,12.0,46,-99.99,,,-99.99,,2013-02-23 22:51:00,
2013-02-23 17:01:00,37.0,19.0,29.92,West,280,10.0,12.0,47,-99.99,,,-99.99,,2013-02-23 23:01:00,
2013-02-23 17:11:00,37.0,18.0,29.91,WNW,285,6.0,10.0,46,-99.99,,,-99.99,,2013-02-23 23:11:00,
2013-02-23 17:21:00,37.0,18.0,29.91,WNW,285,6.0,10.0,46,-99.99,,,-99.99,,2013-02-23 23:21:00,
2013-02-23 17:31:00,36.0,17.0,29.92,WNW,300,7.0,11.0,44,-99.99,,,-99.99,,2013-02-23 23:31:00,
2013-02-23 17:42:00,37.0,18.0,29.91,WNW,285,7.0,10.0,46,-99.99,,,-99.99,,2013-02-23 23:42:00,
2013-02-23 17:52:00,37.0,18.0,29.91,WNW,285,7.0,10.0,46,-99.99,,,-99.99,,2013-02-23 23:52:00,
2013-02-23 18:01:00,36.0,19.0,29.92,WNW,290,5.0,8.0,49,-99.99,,,-99.99,,2013-02-24 00:01:00,
2013-02-23 18:11:00,36.0,20.0,29.93,WNW,290,4.0,7.0,52,-99.99,,,-99.99,,2013-02-24 00:11:00,
2013-02-23 18:22:00,36.0,20.0,29.93,WNW,290,4.0,7.0,52,-99.99,,,-99.99,,2013-02-24 00:22:00,
2013-02-23 18:32:00,35.0,19.0,29.92,NW,310,4.0,7.0,51,-99.99,,,-99.99,,2013-02-24 00:32:00,
2013-02-23 18:42:00,35.0,19.0,29.94,NW,305,5.0,7.0,53,-99.99,,,-99.99,,2013-02-24 00:42:00,
2013-02-23 18:52:00,35.0,19.0,29.94,NW,305,5.0,7.0,53,-99.99,,,-99.99,,2013-02-24 00:52:00,
2013-02-23 19:01:00,34.0,18.0,29.93,NW,320,4.0,6.0,53,-99.99,,,-99.99,,2013-02-24 01:01:00,
2013-02-23 19:11:00,34.0,18.0,29.94,NW,320,2.0,4.0,53,-99.99,,,-99.99,,2013-02-24 01:11:00,
2013-02-23 19:22:00,34.0,18.0,29.94,NW,320,2.0,4.0,53,-99.99,,,-99.99,,2013-02-24 01:22:00,
2013-02-23 19:31:00,33.0,18.0,29.93,NW,315,1.0,3.0,54,-99.99,,,-99.99,,2013-02-24 01:31:00,
2013-02-23 19:42:00,32.0,19.0,29.92,North,0,1.0,2.0,58,-99.99,,,-99.99,,2013-02-24 01:42:00,
2013-02-23 19:51:00,32.0,19.0,29.92,North,0,1.0,2.0,58,-99.99,,,-99.99,,2013-02-24 01:51:00,
2013-02-23 20:01:00,31.0,18.0,29.93,NNE,25,2.0,3.0,58,-99.99,,,-99.99,,2013-02-24 02:01:00,
2013-02-23 20:11:00,32.0,18.0,29.93,East,80,0.0,2.0,56,-99.99,,,-99.99,,2013-02-24 02:11:00,
2013-02-23 20:21:00,32.0,18.0,29.93,East,80,0.0,2.0,56,-99.99,,,-99.99,,2013-02-24 02:21:00,
2013-02-23 20:32:00,31.0,19.0,29.92,North,350,0.0,1.0,60,-99.99,,,-99.99,,2013-02-24 02:32:00,
2013-02-23 20:42:00,30.0,18.0,29.93,NE,50,1.0,2.0,60,-99.99,,,-99.99,,2013-02-24 02:42:00,
2013-02-23 20:52:00,30.0,18.0,29.93,NE,50,1.0,2.0,60,-99.99,,,-99.99,,2013-02-24 02:52:00,
2013-02-23 21:02:00,30.0,18.0,29.92,East,100,1.0,4.0,61,-99.99,,,-99.99,,2013-02-24 03:02:00,
2013-02-23 21:11:00,30.0,18.0,29.92,ESE,120,1.0,2.0,62,-99.99,,,-99.99,,2013-02-24 03:11:00,
2013-02-23 21:21:00,30.0,18.0,29.92,ESE,120,1.0,2.0,62,-99.99,,,-99.99,,2013-02-24 03:21:00,
2013-02-23 21:32:00,30.0,19.0,29.93,SE,135,2.0,4.0,64,-99.99,,,-99.99,,2013-02-24 03:32:00,
2013-02-23 21:42:00,30.0,19.0,29.93,SE,140,2.0,3.0,64,-99.99,,,-99.99,,2013-02-24 03:42:00,
2013-02-23 21:52:00,30.0,19.0,29.93,SE,140,2.0,3.0,64,-99.99,,,-99.99,,2013-02-24 03:52:00,
2013-02-23 22:01:00,28.0,19.0,29.94,ESE,120,3.0,5.0,69,-99.99,,,-99.99,,2013-02-24 04:01:00,
2013-02-23 22:11:00,28.0,19.0,29.94,SE,125,4.0,5.0,68,-99.99,,,-99.99,,2013-02-24 04:11:00,
2013-02-23 22:21:00,28.0,19.0,29.94,SE,125,4.0,5.0,68,-99.99,,,-99.99,,2013-02-24 04:21:00,
2013-02-23 22:32:00,28.0,19.0,29.93,East,95,2.0,5.0,68,-99.99,,,-99.99,,2013-02-24 04:32:00,
2013-02-23 22:42:00,28.0,19.0,29.93,ESE,110,2.0,4.0,67,-99.99,,,-99.99,,2013-02-24 04:42:00,
2013-02-23 22:52:00,28.0,19.0,29.93,ESE,110,2.0,4.0,67,-99.99,,,-99.99,,2013-02-24 04:52:00,
2013-02-23 23:01:00,27.0,19.0,29.92,ESE,110,3.0,4.0,69,-99.99,,,-99.99,,2013-02-24 05:01:00,
2013-02-23 23:11:00,28.0,19.0,29.91,East,90,3.0,4.0,70,-99.99,,,-99.99,,2013-02-24 05:11:00,
2013-02-23 23:22:00,28.0,19.0,29.91,East,90,3.0,4.0,70,-99.99,,,-99.99,,2013-02-24 05:22:00,
2013-02-23 23:32:00,28.0,19.0,29.92,SE,130,4.0,6.0,68,-99.99,,,-99.99,,2013-02-24 05:32:00,
2013-02-23 23:42:00,29.0,19.0,29.92,SE,130,3.0,5.0,66,-99.99,,,-99.99,,2013-02-24 05:42:00,
2013-02-23 23:52:00,29.0,19.0,29.92,SE,130,3.0,5.0,66,-99.99,,,-99.99,,2013-02-24 05:52:00,